Time;durP1;ratioP1;P1;durP2;ratioP2;P2;SDS_P1;SDS_P2;PMS_P1;PMS_P2;Temp;Humidity;BMP_temperature;BMP_pressure;BME280_temperature;BME280_humidity;BME280_pressure;Samples;Min_cycle;Max_cycle;Signal;HPM_P1;HPM_P2
2021/01/18 00:01:47;;;;;;;28.77;12.63;;;;;;;;;;5076715;28;20388;-52
2021/01/18 00:07:12;;;;;;;25.83;11.07;;;;;;;;;;5075304;28;20232;-52
2021/01/18 00:09:52;;;;;;;25.45;12.00;;;;;;;;;;5075346;28;20211;-47
2021/01/18 00:12:34;;;;;;;26.13;11.15;;;;;;;;;;5075571;28;20189;-54
2021/01/18 00:15:08;;;;;;;28.48;11.90;;;;;;;;;;5075978;28;20205;-49
2021/01/18 00:17:47;;;;;;;21.65;11.48;;;;;;;;;;5077424;28;20201;-54
2021/01/18 00:20:14;;;;;;;19.85;12.02;;;;;;;;;;5074557;28;20284;-50
2021/01/18 00:22:43;;;;;;;22.58;13.13;;;;;;;;;;5075339;28;20338;-51
2021/01/18 00:25:14;;;;;;;19.50;13.85;;;;;;;;;;5075900;28;20375;-49
2021/01/18 00:30:45;;;;;;;27.15;13.30;;;;;;;;;;5075934;28;20173;-51
2021/01/18 00:33:14;;;;;;;26.63;11.73;;;;;;;;;;5074899;28;20259;-49
2021/01/18 00:35:41;;;;;;;24.13;11.73;;;;;;;;;;5077230;28;20216;-56
2021/01/18 00:41:23;;;;;;;30.08;12.07;;;;;;;;;;5055749;28;20166;-57
2021/01/18 00:43:51;;;;;;;23.58;13.05;;;;;;;;;;5072007;28;20226;-55
2021/01/18 00:46:18;;;;;;;19.95;12.63;;;;;;;;;;5076268;28;20176;-51
2021/01/18 00:48:56;;;;;;;28.67;15.10;;;;;;;;;;5076397;28;20232;-52
2021/01/18 00:51:25;;;;;;;24.92;13.52;;;;;;;;;;5075786;28;20232;-46
2021/01/18 00:54:14;;;;;;;40.70;25.63;;;;;;;;;;5074827;28;20239;-47
2021/01/18 00:56:52;;;;;;;34.28;12.57;;;;;;;;;;5076173;28;20202;-46
2021/01/18 01:02:29;;;;;;;20.20;12.60;;;;;;;;;;5038195;28;20229;-52
2021/01/18 01:04:57;;;;;;;19.25;11.65;;;;;;;;;;5075953;28;20258;-52
2021/01/18 01:07:24;;;;;;;17.92;12.07;;;;;;;;;;5075297;28;20174;-49
2021/01/18 01:10:04;;;;;;;20.70;12.13;;;;;;;;;;5076045;28;20197;-53
2021/01/18 01:12:31;;;;;;;25.27;12.95;;;;;;;;;;5075540;28;20222;-52
2021/01/18 01:15:05;;;;;;;23.55;11.73;;;;;;;;;;5075195;28;20225;-51
2021/01/18 01:17:37;;;;;;;19.40;11.95;;;;;;;;;;5076988;28;20228;-56
2021/01/18 01:20:17;;;;;;;32.20;12.77;;;;;;;;;;5076023;28;20185;-53
2021/01/18 01:22:43;;;;;;;23.73;12.73;;;;;;;;;;5075385;28;20201;-54
2021/01/18 01:25:11;;;;;;;21.48;12.13;;;;;;;;;;5074924;28;20186;-44
2021/01/18 01:27:58;;;;;;;25.33;12.55;;;;;;;;;;5075302;28;20233;-55
2021/01/18 01:30:36;;;;;;;21.23;12.30;;;;;;;;;;5076501;28;20195;-54
2021/01/18 01:35:46;;;;;;;25.27;12.15;;;;;;;;;;5073666;28;20203;-53
2021/01/18 01:38:13;;;;;;;24.17;11.35;;;;;;;;;;5074351;28;20211;-50
2021/01/18 01:40:58;;;;;;;22.95;13.07;;;;;;;;;;5075026;28;20235;-57
2021/01/18 01:43:25;;;;;;;21.75;11.25;;;;;;;;;;5075525;28;20604;-51
2021/01/18 01:45:57;;;;;;;27.55;12.45;;;;;;;;;;5074289;28;20215;-48
2021/01/18 01:48:37;;;;;;;24.05;12.95;;;;;;;;;;5074328;28;20197;-52
2021/01/18 01:51:12;;;;;;;22.42;12.23;;;;;;;;;;5075192;28;20211;-54
2021/01/18 01:53:58;;;;;;;26.23;12.88;;;;;;;;;;5064934;28;20214;-52
2021/01/18 01:56:31;;;;;;;29.90;12.27;;;;;;;;;;5071502;28;20198;-55
2021/01/18 01:58:59;;;;;;;20.33;13.85;;;;;;;;;;5075445;28;20195;-46
2021/01/18 02:01:27;;;;;;;28.33;12.85;;;;;;;;;;5072949;28;20257;-54
2021/01/18 02:04:02;;;;;;;28.73;13.60;;;;;;;;;;5052614;28;20241;-49
2021/01/18 02:06:31;;;;;;;25.88;13.55;;;;;;;;;;5074012;28;20198;-50
2021/01/18 02:09:23;;;;;;;27.48;13.13;;;;;;;;;;5073523;28;20213;-49
2021/01/18 02:11:49;;;;;;;19.83;13.07;;;;;;;;;;5074311;28;20220;-49
2021/01/18 02:14:46;;;;;;;20.88;13.65;;;;;;;;;;5074030;28;20216;-53
2021/01/18 02:17:33;;;;;;;24.25;14.10;;;;;;;;;;4993186;28;20466;-52
2021/01/18 02:20:20;;;;;;;24.23;12.77;;;;;;;;;;4994084;28;20250;-55
2021/01/18 02:23:02;;;;;;;25.45;14.63;;;;;;;;;;4994417;28;20247;-54
2021/01/18 02:25:50;;;;;;;21.30;14.38;;;;;;;;;;5024379;28;20197;-52
2021/01/18 02:28:28;;;;;;;27.60;12.25;;;;;;;;;;5075398;28;20246;-49
2021/01/18 02:34:32;;;;;;;21.80;11.80;;;;;;;;;;5064653;28;20240;-51
2021/01/18 02:37:17;;;;;;;23.75;12.02;;;;;;;;;;5073374;28;20302;-55
2021/01/18 02:43:19;;;;;;;18.13;12.35;;;;;;;;;;5071500;28;20248;-53
2021/01/18 02:46:14;;;;;;;21.35;10.52;;;;;;;;;;5074879;28;20208;-51
2021/01/18 02:48:58;;;;;;;18.92;11.65;;;;;;;;;;5073840;28;20507;-55
2021/01/18 02:51:27;;;;;;;18.50;11.05;;;;;;;;;;5072512;28;20507;-52
2021/01/18 02:56:54;;;;;;;15.80;9.57;;;;;;;;;;5042264;28;20188;-51
2021/01/18 02:59:49;;;;;;;18.42;8.27;;;;;;;;;;5070671;28;20204;-50
2021/01/18 03:02:26;;;;;;;23.85;10.10;;;;;;;;;;5073186;28;20197;-54
2021/01/18 03:05:04;;;;;;;13.90;9.43;;;;;;;;;;5074500;28;20189;-49
2021/01/18 03:07:48;;;;;;;17.33;9.00;;;;;;;;;;5074741;28;20193;-56
2021/01/18 03:10:21;;;;;;;17.60;7.95;;;;;;;;;;5074717;28;20227;-52
2021/01/18 03:12:54;;;;;;;14.20;7.15;;;;;;;;;;5074610;28;20190;-51
2021/01/18 03:15:36;;;;;;;15.50;7.93;;;;;;;;;;5078170;28;20220;-55
2021/01/18 03:18:10;;;;;;;13.88;8.15;;;;;;;;;;5076465;28;20525;-49
2021/01/18 03:20:38;;;;;;;16.50;7.78;;;;;;;;;;5062531;28;20184;-49
2021/01/18 03:26:14;;;;;;;19.30;9.65;;;;;;;;;;5035114;28;20220;-50
2021/01/18 03:28:44;;;;;;;14.18;7.20;;;;;;;;;;5059034;28;20201;-51
2021/01/18 03:31:11;;;;;;;14.88;8.35;;;;;;;;;;5057552;28;20459;-52
2021/01/18 03:33:38;;;;;;;23.55;8.35;;;;;;;;;;5058516;28;20217;-53
2021/01/18 03:36:06;;;;;;;22.10;7.65;;;;;;;;;;5057972;28;20194;-58
2021/01/18 03:41:55;;;;;;;14.48;8.32;;;;;;;;;;5057295;28;20229;-50
2021/01/18 03:44:26;;;;;;;14.70;7.95;;;;;;;;;;5056934;28;20218;-57
2021/01/18 03:47:03;;;;;;;19.42;8.05;;;;;;;;;;5057151;28;20206;-48
2021/01/18 03:49:36;;;;;;;19.48;8.57;;;;;;;;;;5057846;28;20648;-56
2021/01/18 03:52:08;;;;;;;16.20;9.23;;;;;;;;;;5068946;28;20240;-47
2021/01/18 03:55:00;;;;;;;13.50;7.70;;;;;;;;;;5079207;28;20213;-48
2021/01/18 03:57:42;;;;;;;13.02;7.72;;;;;;;;;;5077513;28;20196;-52
2021/01/18 04:00:09;;;;;;;14.55;7.70;;;;;;;;;;5078499;28;20220;-53
2021/01/18 04:02:37;;;;;;;13.88;7.20;;;;;;;;;;5078159;28;20225;-55
2021/01/18 04:05:33;;;;;;;16.83;7.25;;;;;;;;;;5077387;28;20228;-50
2021/01/18 04:08:19;;;;;;;17.55;8.07;;;;;;;;;;5055644;28;20218;-52
2021/01/18 04:10:51;;;;;;;12.45;8.95;;;;;;;;;;5056293;28;20292;-55
2021/01/18 04:13:27;;;;;;;18.67;9.00;;;;;;;;;;5056096;28;20201;-48
2021/01/18 04:16:00;;;;;;;23.88;9.85;;;;;;;;;;5039814;28;20202;-51
2021/01/18 04:18:36;;;;;;;13.88;9.27;;;;;;;;;;5056845;28;20186;-48
2021/01/18 04:23:52;;;;;;;17.35;8.75;;;;;;;;;;5071040;28;20221;-51
2021/01/18 04:26:22;;;;;;;12.52;8.10;;;;;;;;;;5073996;28;20174;-58
2021/01/18 04:28:59;;;;;;;;;;;;;;;;;;;;;
2021/01/18 04:31:39;;;;;;;19.35;9.65;;;;;;;;;;5060287;28;20231;-53
2021/01/18 04:34:10;;;;;;;25.70;9.98;;;;;;;;;;5075021;28;20193;-49
2021/01/18 04:42:45;;;;;;;17.48;9.15;;;;;;;;;;5035037;28;20245;-53
2021/01/18 04:45:28;;;;;;;23.88;10.02;;;;;;;;;;5075585;28;20190;-51
2021/01/18 04:47:56;;;;;;;23.40;10.48;;;;;;;;;;5076097;28;20256;-49
2021/01/18 04:50:30;;;;;;;20.92;10.15;;;;;;;;;;5075954;28;20253;-54
2021/01/18 04:52:58;;;;;;;17.88;10.70;;;;;;;;;;5075027;28;20204;-50
2021/01/18 04:55:29;;;;;;;17.92;8.82;;;;;;;;;;5082734;28;20191;-52
2021/01/18 05:01:13;;;;;;;24.05;10.65;;;;;;;;;;5071203;28;20228;-52
2021/01/18 05:03:45;;;;;;;29.40;15.35;;;;;;;;;;5076243;28;20218;-48
2021/01/18 05:06:42;;;;;;;19.85;10.00;;;;;;;;;;5076736;28;20243;-50
2021/01/18 05:09:30;;;;;;;17.30;9.68;;;;;;;;;;5040727;28;20211;-54
2021/01/18 05:12:00;;;;;;;25.55;10.75;;;;;;;;;;5055467;28;20210;-49
2021/01/18 05:14:54;;;;;;;19.20;10.05;;;;;;;;;;5056384;28;20221;-58
2021/01/18 05:17:34;;;;;;;18.77;9.23;;;;;;;;;;5056574;28;20206;-54
2021/01/18 05:23:17;;;;;;;16.35;9.20;;;;;;;;;;5048011;28;20265;-50
2021/01/18 05:25:53;;;;;;;12.55;8.98;;;;;;;;;;5060921;28;20204;-48
2021/01/18 05:28:23;;;;;;;15.95;9.50;;;;;;;;;;5075556;28;20177;-53
2021/01/18 05:30:51;;;;;;;20.67;10.77;;;;;;;;;;5074753;28;20210;-58
2021/01/18 05:33:19;;;;;;;19.08;10.65;;;;;;;;;;5075006;28;20216;-52
2021/01/18 05:35:47;;;;;;;24.52;9.82;;;;;;;;;;5076029;28;20188;-50
2021/01/18 05:38:29;;;;;;;16.77;8.57;;;;;;;;;;5076538;28;20212;-50
2021/01/18 05:41:01;;;;;;;20.67;9.63;;;;;;;;;;5076832;28;20212;-49
2021/01/18 05:46:07;;;;;;;19.40;10.20;;;;;;;;;;5073985;28;20263;-56
2021/01/18 05:51:22;;;;;;;21.13;9.70;;;;;;;;;;5074752;28;20194;-55
2021/01/18 05:53:53;;;;;;;20.50;9.45;;;;;;;;;;5073963;28;20205;-54
2021/01/18 05:56:20;;;;;;;14.25;9.60;;;;;;;;;;5075678;28;20205;-51
2021/01/18 05:59:07;;;;;;;22.77;9.48;;;;;;;;;;5076008;28;20185;-49
2021/01/18 06:01:39;;;;;;;21.30;11.30;;;;;;;;;;5075179;28;20193;-56
2021/01/18 06:04:36;;;;;;;26.05;13.25;;;;;;;;;;5043710;28;20251;-49
2021/01/18 06:07:04;;;;;;;19.20;9.60;;;;;;;;;;5075255;28;20205;-49
2021/01/18 06:12:45;;;;;;;22.52;10.40;;;;;;;;;;5067708;28;20216;-58
2021/01/18 06:15:30;;;;;;;28.08;12.27;;;;;;;;;;5067030;28;20433;-55
2021/01/18 06:18:02;;;;;;;30.58;11.88;;;;;;;;;;5075192;28;20193;-53
2021/01/18 06:21:00;;;;;;;23.30;10.65;;;;;;;;;;5075941;28;20182;-55
2021/01/18 06:26:02;;;;;;;18.50;9.65;;;;;;;;;;5073447;28;20271;-54
2021/01/18 06:28:42;;;;;;;26.20;10.02;;;;;;;;;;5074293;28;20231;-55
2021/01/18 06:31:11;;;;;;;21.00;10.60;;;;;;;;;;5025769;28;20245;-57
2021/01/18 06:33:39;;;;;;;21.20;11.15;;;;;;;;;;5034431;28;20252;-54
2021/01/18 06:36:31;;;;;;;22.85;10.82;;;;;;;;;;5035417;28;20193;-52
2021/01/18 06:39:05;;;;;;;21.75;11.63;;;;;;;;;;5040706;28;20379;-55
2021/01/18 06:41:44;;;;;;;25.05;10.77;;;;;;;;;;5071994;28;20202;-52
2021/01/18 06:44:12;;;;;;;18.20;10.75;;;;;;;;;;5074836;28;20243;-54
2021/01/18 06:49:22;;;;;;;22.33;10.00;;;;;;;;;;5073538;28;20223;-54
2021/01/18 06:52:12;;;;;;;22.20;12.05;;;;;;;;;;5073173;28;20213;-53
2021/01/18 06:54:42;;;;;;;19.73;9.77;;;;;;;;;;5073145;28;20221;-54
2021/01/18 06:57:37;;;;;;;32.80;10.88;;;;;;;;;;5074561;28;20185;-57
2021/01/18 07:00:07;;;;;;;22.67;10.57;;;;;;;;;;5071829;28;20233;-53
2021/01/18 07:02:38;;;;;;;35.63;11.65;;;;;;;;;;5073695;28;20206;-50
2021/01/18 07:05:30;;;;;;;16.80;9.98;;;;;;;;;;5073860;28;20231;-56
2021/01/18 07:08:23;;;;;;;18.52;11.10;;;;;;;;;;5045191;28;20259;-57
2021/01/18 07:10:53;;;;;;;30.38;10.23;;;;;;;;;;5074572;28;20213;-52
2021/01/18 07:13:33;;;;;;;22.48;11.70;;;;;;;;;;5074550;28;20222;-57
2021/01/18 07:16:20;;;;;;;24.23;12.07;;;;;;;;;;5073642;28;20539;-51
2021/01/18 07:21:56;;;;;;;19.15;10.60;;;;;;;;;;5002917;28;20249;-50
2021/01/18 07:24:29;;;;;;;23.52;10.57;;;;;;;;;;5012295;28;20278;-50
2021/01/18 07:27:16;;;;;;;21.27;11.38;;;;;;;;;;5056716;28;20194;-54
2021/01/18 07:29:43;;;;;;;25.02;10.52;;;;;;;;;;5074172;28;20200;-55
2021/01/18 07:32:23;;;;;;;18.27;10.85;;;;;;;;;;5074915;28;20183;-52
2021/01/18 07:41:04;;;;;;;26.27;10.15;;;;;;;;;;5074383;28;20180;-56
2021/01/18 07:43:53;;;;;;;26.30;10.57;;;;;;;;;;5058094;28;20229;-53
2021/01/18 07:46:51;;;;;;;27.92;10.70;;;;;;;;;;5061263;28;20190;-46
2021/01/18 07:52:31;;;;;;;29.83;10.20;;;;;;;;;;5068475;28;20297;-57
2021/01/18 07:55:06;;;;;;;25.25;10.68;;;;;;;;;;5071556;28;20200;-55
2021/01/18 07:57:55;;;;;;;27.33;10.38;;;;;;;;;;5071886;28;20240;-56
2021/01/18 08:06:13;;;;;;;20.42;9.50;;;;;;;;;;5076685;28;20218;-56
2021/01/18 08:08:44;;;;;;;24.17;10.70;;;;;;;;;;5077180;28;20190;-53
2021/01/18 08:11:24;;;;;;;21.55;12.35;;;;;;;;;;5077754;28;20213;-52
2021/01/18 08:13:55;;;;;;;32.70;18.50;;;;;;;;;;5076402;28;20232;-49
2021/01/18 08:19:20;;;;;;;32.30;14.25;;;;;;;;;;5075347;28;20224;-54
2021/01/18 08:22:11;;;;;;;26.85;12.02;;;;;;;;;;5074751;28;20244;-53
2021/01/18 08:25:16;;;;;;;26.08;13.80;;;;;;;;;;5077314;28;20237;-54
2021/01/18 08:34:15;;;;;;;24.33;12.20;;;;;;;;;;5076091;28;20234;-54
2021/01/18 08:36:47;;;;;;;15.88;11.82;;;;;;;;;;5076075;28;20201;-51
2021/01/18 08:39:40;;;;;;;21.27;12.68;;;;;;;;;;5076936;28;20218;-55
2021/01/18 08:42:24;;;;;;;21.02;13.63;;;;;;;;;;5076064;28;20222;-51
2021/01/18 08:54:33;;;;;;;22.02;11.95;;;;;;;;;;5075316;28;20247;-49
2021/01/18 08:57:19;;;;;;;22.40;11.85;;;;;;;;;;5074957;28;20205;-49
2021/01/18 09:00:13;;;;;;;22.77;12.75;;;;;;;;;;5074889;28;20207;-57
2021/01/18 09:02:43;;;;;;;19.98;11.73;;;;;;;;;;5073782;28;20608;-58
2021/01/18 09:05:28;;;;;;;24.80;11.98;;;;;;;;;;5075497;28;20202;-52
2021/01/18 09:07:54;;;;;;;24.08;13.18;;;;;;;;;;5066321;28;20216;-57
2021/01/18 09:10:23;;;;;;;24.35;12.75;;;;;;;;;;5076396;28;20202;-54
2021/01/18 09:12:57;;;;;;;25.92;13.77;;;;;;;;;;5076498;28;20194;-54
2021/01/18 09:15:30;;;;;;;24.70;13.75;;;;;;;;;;5076807;28;20194;-52
2021/01/18 09:17:57;;;;;;;28.35;14.80;;;;;;;;;;5072755;28;20194;-59
2021/01/18 09:20:48;;;;;;;25.30;14.90;;;;;;;;;;5075692;28;20195;-50
2021/01/18 09:23:22;;;;;;;29.40;15.20;;;;;;;;;;5075019;28;20214;-60
2021/01/18 09:26:03;;;;;;;38.25;14.77;;;;;;;;;;5075326;28;20209;-51
2021/01/18 09:29:12;;;;;;;38.00;15.60;;;;;;;;;;5071694;28;20674;-53
2021/01/18 09:31:39;;;;;;;24.85;13.95;;;;;;;;;;5075353;28;20193;-51
2021/01/18 09:34:42;;;;;;;29.38;14.88;;;;;;;;;;5075031;28;20206;-51
2021/01/18 09:37:22;;;;;;;34.67;15.73;;;;;;;;;;5075359;28;20198;-52
2021/01/18 09:42:48;;;;;;;24.95;14.20;;;;;;;;;;5070929;28;20249;-50
2021/01/18 09:48:25;;;;;;;24.40;12.05;;;;;;;;;;5065323;28;20259;-52
2021/01/18 09:51:04;;;;;;;29.77;12.43;;;;;;;;;;5072589;28;20196;-55
2021/01/18 09:53:31;;;;;;;22.63;11.65;;;;;;;;;;5070025;28;20219;-52
2021/01/18 10:02:11;;;;;;;25.52;12.45;;;;;;;;;;5072487;28;20192;-56
2021/01/18 10:04:59;;;;;;;22.30;11.48;;;;;;;;;;5073511;28;20230;-52
2021/01/18 10:07:35;;;;;;;25.42;11.63;;;;;;;;;;5073288;28;20188;-49
2021/01/18 10:13:18;;;;;;;32.20;11.40;;;;;;;;;;5072973;28;20332;-47
2021/01/18 10:15:47;;;;;;;24.63;11.20;;;;;;;;;;5074135;28;20203;-52
2021/01/18 10:18:33;;;;;;;16.88;10.20;;;;;;;;;;5072521;28;20231;-56
2021/01/18 10:21:12;;;;;;;29.10;9.40;;;;;;;;;;5072359;28;20236;-56
2021/01/18 10:23:41;;;;;;;20.35;9.57;;;;;;;;;;5064380;28;20265;-56
2021/01/18 10:29:22;;;;;;;21.98;8.48;;;;;;;;;;5090195;28;20228;-55
2021/01/18 10:31:53;;;;;;;17.13;8.02;;;;;;;;;;5071067;28;20199;-55
2021/01/18 10:34:38;;;;;;;16.80;8.23;;;;;;;;;;5071270;28;20178;-54
2021/01/18 10:37:17;;;;;;;11.70;6.85;;;;;;;;;;5071199;28;20192;-55
2021/01/18 10:40:03;;;;;;;13.80;7.38;;;;;;;;;;5072384;28;20236;-58
2021/01/18 10:42:34;;;;;;;14.65;6.53;;;;;;;;;;5064971;28;20180;-53
2021/01/18 10:45:09;;;;;;;14.73;6.97;;;;;;;;;;5051920;28;20216;-49
2021/01/18 10:47:48;;;;;;;22.50;7.13;;;;;;;;;;5052550;28;20228;-50
2021/01/18 10:50:29;;;;;;;16.77;7.00;;;;;;;;;;5051154;28;20212;-55
2021/01/18 10:59:06;;;;;;;13.05;4.00;;;;;;;;;;5045191;28;20287;-50
2021/01/18 11:01:53;;;;;;;12.00;6.18;;;;;;;;;;5051854;28;20197;-56
2021/01/18 11:10:31;;;;;;;12.63;4.30;;;;;;;;;;5012136;28;20179;-54
2021/01/18 11:13:03;;;;;;;17.25;4.55;;;;;;;;;;5073099;28;20192;-47
2021/01/18 11:15:32;;;;;;;18.05;5.70;;;;;;;;;;5072785;28;20201;-53
2021/01/18 11:24:33;;;;;;;8.38;4.03;;;;;;;;;;5072675;28;20276;-56
2021/01/18 11:27:04;;;;;;;20.23;4.60;;;;;;;;;;5071407;28;20208;-56
2021/01/18 11:29:31;;;;;;;16.15;6.00;;;;;;;;;;5071986;28;20212;-53
2021/01/18 11:31:59;;;;;;;9.30;3.65;;;;;;;;;;5055773;28;20206;-53
2021/01/18 11:34:37;;;;;;;11.32;4.20;;;;;;;;;;5072748;28;20221;-52
2021/01/18 11:37:06;;;;;;;14.80;6.95;;;;;;;;;;5074953;28;20223;-53
2021/01/18 11:39:36;;;;;;;13.50;3.90;;;;;;;;;;5077053;28;20203;-48
2021/01/18 11:51:49;;;;;;;17.33;4.20;;;;;;;;;;5071476;28;20220;-52
2021/01/18 11:54:16;;;;;;;12.98;5.30;;;;;;;;;;5068660;28;20214;-54
2021/01/18 11:56:43;;;;;;;10.02;3.53;;;;;;;;;;5066362;28;20208;-57
2021/01/18 11:59:14;;;;;;;15.68;3.20;;;;;;;;;;5056929;28;20199;-54
2021/01/18 12:01:43;;;;;;;15.23;4.88;;;;;;;;;;5073671;28;20604;-56
2021/01/18 12:04:21;;;;;;;12.85;5.50;;;;;;;;;;5056746;28;20203;-55
2021/01/18 12:06:55;;;;;;;14.95;3.55;;;;;;;;;;5076011;28;20200;-50
2021/01/18 12:09:24;;;;;;;16.23;3.67;;;;;;;;;;5072494;28;20214;-51
2021/01/18 12:11:52;;;;;;;11.45;3.80;;;;;;;;;;5057681;28;20229;-48
2021/01/18 12:14:20;;;;;;;8.38;3.58;;;;;;;;;;5075345;28;20192;-54
2021/01/18 12:16:49;;;;;;;12.82;3.45;;;;;;;;;;5076247;28;20228;-53
2021/01/18 12:19:25;;;;;;;12.73;2.85;;;;;;;;;;5069531;28;20204;-56
2021/01/18 12:22:28;;;;;;;13.00;3.65;;;;;;;;;;5071081;28;20207;-54
2021/01/18 12:28:25;;;;;;;11.80;3.53;;;;;;;;;;5073662;28;20227;-54
2021/01/18 12:31:14;;;;;;;12.55;3.65;;;;;;;;;;5056776;28;20231;-54
2021/01/18 12:34:00;;;;;;;14.50;3.65;;;;;;;;;;5057170;28;20204;-56
2021/01/18 12:36:28;;;;;;;14.68;4.60;;;;;;;;;;5074976;28;20250;-55
2021/01/18 12:38:58;;;;;;;13.40;3.65;;;;;;;;;;5067745;28;20269;-47
2021/01/18 12:41:31;;;;;;;19.92;5.18;;;;;;;;;;5076168;28;20202;-54
2021/01/18 12:44:28;;;;;;;12.32;4.05;;;;;;;;;;5074567;28;20217;-51
2021/01/18 12:56:29;;;;;;;10.55;4.22;;;;;;;;;;5081815;28;20235;-58
2021/01/18 12:58:59;;;;;;;10.75;3.38;;;;;;;;;;5076141;28;20247;-57
2021/01/18 13:01:48;;;;;;;10.27;3.85;;;;;;;;;;5062302;28;20216;-58
2021/01/18 13:04:15;;;;;;;17.50;3.47;;;;;;;;;;5056249;28;20244;-54
2021/01/18 13:06:54;;;;;;;9.65;4.75;;;;;;;;;;5054176;28;20217;-52
2021/01/18 13:09:26;;;;;;;13.70;4.13;;;;;;;;;;5061816;28;20204;-52
2021/01/18 13:11:54;;;;;;;12.63;5.47;;;;;;;;;;5074857;28;20219;-54
2021/01/18 13:14:23;;;;;;;18.95;3.47;;;;;;;;;;5073356;28;20200;-56
2021/01/18 13:16:53;;;;;;;18.88;3.83;;;;;;;;;;5074315;28;20204;-55
2021/01/18 13:19:21;;;;;;;18.92;4.30;;;;;;;;;;5053994;28;20228;-50
2021/01/18 13:21:52;;;;;;;9.68;3.85;;;;;;;;;;5073530;28;20248;-55
2021/01/18 13:24:27;;;;;;;9.02;3.50;;;;;;;;;;5086177;28;20203;-51
2021/01/18 13:26:55;;;;;;;18.92;3.28;;;;;;;;;;5094666;28;20210;-56
2021/01/18 13:29:23;;;;;;;12.68;2.90;;;;;;;;;;5094765;28;20199;-55
2021/01/18 13:34:55;;;;;;;13.95;2.90;;;;;;;;;;5072937;28;20179;-56
2021/01/18 13:37:22;;;;;;;16.80;3.47;;;;;;;;;;5072392;28;20253;-52
2021/01/18 13:40:05;;;;;;;8.93;2.90;;;;;;;;;;5073654;28;20192;-57
2021/01/18 13:45:39;;;;;;;16.25;3.72;;;;;;;;;;5026760;28;20255;-52
2021/01/18 13:48:07;;;;;;;7.20;2.95;;;;;;;;;;5052936;28;20219;-48
2021/01/18 13:51:10;;;;;;;9.70;3.90;;;;;;;;;;5070882;28;20204;-55
2021/01/18 13:53:39;;;;;;;10.13;3.00;;;;;;;;;;5040362;28;20196;-50
2021/01/18 13:56:09;;;;;;;13.63;3.47;;;;;;;;;;5072423;28;20205;-50
2021/01/18 13:58:37;;;;;;;14.05;3.35;;;;;;;;;;5070729;28;20213;-53
2021/01/18 14:01:05;;;;;;;10.43;3.10;;;;;;;;;;5071103;28;20227;-57
2021/01/18 14:03:37;;;;;;;15.35;2.80;;;;;;;;;;5069881;28;20216;-55
2021/01/18 14:06:05;;;;;;;9.73;4.40;;;;;;;;;;5068493;28;20218;-51
2021/01/18 14:08:42;;;;;;;14.60;2.88;;;;;;;;;;5072233;28;20241;-46
2021/01/18 14:11:14;;;;;;;11.48;3.50;;;;;;;;;;5073308;28;20191;-51
2021/01/18 14:13:41;;;;;;;6.93;2.45;;;;;;;;;;5073500;28;20168;-52
2021/01/18 14:16:19;;;;;;;11.48;3.85;;;;;;;;;;5073967;28;20211;-53
2021/01/18 14:18:47;;;;;;;11.57;3.30;;;;;;;;;;5072350;28;20210;-53
2021/01/18 14:21:51;;;;;;;6.68;3.00;;;;;;;;;;5072434;28;20192;-55
2021/01/18 14:24:19;;;;;;;16.20;3.97;;;;;;;;;;5032368;28;20239;-57
2021/01/18 14:27:37;;;;;;;8.65;4.03;;;;;;;;;;5071328;28;20231;-52
2021/01/18 14:30:10;;;;;;;10.95;3.63;;;;;;;;;;5072119;28;20200;-55
2021/01/18 14:32:38;;;;;;;11.35;3.63;;;;;;;;;;5072141;28;20204;-56
2021/01/18 14:35:06;;;;;;;10.80;3.08;;;;;;;;;;5071150;28;20183;-53
2021/01/18 14:37:54;;;;;;;8.90;3.10;;;;;;;;;;5072447;28;20347;-53
2021/01/18 14:40:31;;;;;;;12.07;3.30;;;;;;;;;;5067597;28;20243;-46
2021/01/18 14:42:58;;;;;;;29.23;4.80;;;;;;;;;;5051799;28;20192;-54
2021/01/18 14:45:40;;;;;;;11.45;2.80;;;;;;;;;;5058671;28;20239;-58
2021/01/18 14:48:10;;;;;;;12.10;3.45;;;;;;;;;;5071915;28;20184;-50
2021/01/18 14:53:19;;;;;;;17.38;4.22;;;;;;;;;;5073722;28;20200;-51
2021/01/18 14:55:50;;;;;;;14.07;3.80;;;;;;;;;;5072262;28;20211;-52
2021/01/18 14:58:20;;;;;;;18.92;4.68;;;;;;;;;;5071388;28;20483;-50
2021/01/18 15:00:49;;;;;;;10.93;3.83;;;;;;;;;;5071348;28;20195;-53
2021/01/18 15:03:18;;;;;;;12.52;3.05;;;;;;;;;;5071838;28;20397;-55
2021/01/18 15:05:48;;;;;;;9.63;3.45;;;;;;;;;;5070416;28;20211;-55
2021/01/18 15:08:52;;;;;;;7.90;2.80;;;;;;;;;;5068918;28;20205;-58
2021/01/18 15:11:21;;;;;;;15.35;4.35;;;;;;;;;;5073511;28;20259;-56
2021/01/18 15:13:51;;;;;;;7.47;2.80;;;;;;;;;;5068048;28;20204;-60
2021/01/18 15:22:15;;;;;;;10.20;2.60;;;;;;;;;;5073499;28;20321;-58
2021/01/18 15:25:11;;;;;;;10.98;3.05;;;;;;;;;;5075787;28;20245;-51
2021/01/18 15:30:50;;;;;;;17.55;4.22;;;;;;;;;;5053696;28;20209;-51
2021/01/18 15:33:28;;;;;;;8.27;3.15;;;;;;;;;;5075931;28;20198;-56
2021/01/18 15:36:08;;;;;;;13.07;4.28;;;;;;;;;;5074907;28;20229;-57
2021/01/18 15:38:49;;;;;;;7.75;3.47;;;;;;;;;;5074601;28;20426;-54
2021/01/18 15:41:28;;;;;;;16.95;5.40;;;;;;;;;;5075472;28;20212;-55
2021/01/18 15:44:13;;;;;;;14.63;5.00;;;;;;;;;;5074339;28;20236;-56
2021/01/18 15:52:44;;;;;;;9.82;4.38;;;;;;;;;;5075317;28;20214;-58
2021/01/18 15:55:17;;;;;;;13.20;3.95;;;;;;;;;;5074358;28;20203;-60
2021/01/18 16:01:07;;;;;;;10.82;4.88;;;;;;;;;;5076320;28;20206;-53
2021/01/18 16:07:08;;;;;;;10.55;4.18;;;;;;;;;;5039734;28;20511;-50
2021/01/18 16:15:28;;;;;;;14.25;4.15;;;;;;;;;;5071115;28;20214;-53
2021/01/18 16:18:18;;;;;;;9.23;3.90;;;;;;;;;;5069302;28;20209;-52
2021/01/18 16:20:45;;;;;;;17.35;4.78;;;;;;;;;;5068961;28;20206;-53
2021/01/18 16:23:17;;;;;;;8.30;4.20;;;;;;;;;;5073795;28;20206;-56
2021/01/18 16:28:59;;;;;;;11.05;3.63;;;;;;;;;;5061903;28;20197;-53
2021/01/18 16:31:34;;;;;;;10.45;3.45;;;;;;;;;;5074417;28;20208;-51
2021/01/18 16:34:14;;;;;;;9.10;3.00;;;;;;;;;;5074207;28;20297;-51
2021/01/18 16:36:45;;;;;;;16.40;6.13;;;;;;;;;;5092367;28;20220;-52
2021/01/18 16:39:17;;;;;;;8.70;4.85;;;;;;;;;;5081848;28;20189;-61
2021/01/18 16:41:58;;;;;;;17.73;5.85;;;;;;;;;;5090475;28;20460;-54
2021/01/18 16:45:02;;;;;;;9.32;3.80;;;;;;;;;;5086757;28;20273;-57
2021/01/18 16:47:56;;;;;;;8.13;4.10;;;;;;;;;;5075513;28;20227;-51
2021/01/18 16:50:27;;;;;;;8.30;3.10;;;;;;;;;;5040180;28;20200;-50
2021/01/18 16:53:33;;;;;;;17.83;9.80;;;;;;;;;;5076960;28;20189;-53
2021/01/18 16:56:06;;;;;;;10.38;4.25;;;;;;;;;;5075056;28;20201;-57
2021/01/18 17:04:02;;;;;;;17.48;4.63;;;;;;;;;;5071695;28;20239;-55
2021/01/18 17:09:25;;;;;;;13.35;4.38;;;;;;;;;;5078921;28;20224;-53
2021/01/18 17:11:58;;;;;;;7.70;4.25;;;;;;;;;;5089046;28;20197;-57
2021/01/18 17:14:35;;;;;;;11.35;4.78;;;;;;;;;;5074760;28;20214;-53
2021/01/18 17:17:05;;;;;;;8.82;4.05;;;;;;;;;;5062067;28;20198;-59
2021/01/18 17:19:45;;;;;;;21.33;6.95;;;;;;;;;;5074221;28;20209;-55
2021/01/18 17:28:36;;;;;;;16.73;5.93;;;;;;;;;;5063693;28;20200;-56
2021/01/18 17:31:26;;;;;;;11.20;4.95;;;;;;;;;;5075581;28;20292;-57
2021/01/18 17:34:02;;;;;;;10.43;3.83;;;;;;;;;;5074745;28;20204;-54
2021/01/18 17:36:37;;;;;;;7.95;3.97;;;;;;;;;;5076455;28;20292;-53
2021/01/18 17:39:05;;;;;;;7.45;4.60;;;;;;;;;;5065733;28;20201;-58
2021/01/18 17:41:44;;;;;;;10.77;3.78;;;;;;;;;;5073061;28;20231;-53
2021/01/18 17:44:12;;;;;;;12.57;3.83;;;;;;;;;;5079115;28;20217;-55
2021/01/18 17:46:39;;;;;;;9.82;3.42;;;;;;;;;;5071384;28;20183;-57
2021/01/18 17:57:15;;;;;;;12.48;4.07;;;;;;;;;;5063059;28;20237;-48
2021/01/18 17:59:44;;;;;;;8.65;3.22;;;;;;;;;;5074386;28;20349;-56
2021/01/18 18:02:19;;;;;;;8.20;3.00;;;;;;;;;;5073846;28;20220;-53
2021/01/18 18:04:53;;;;;;;8.88;4.30;;;;;;;;;;5064019;28;20249;-47
2021/01/18 18:10:24;;;;;;;8.95;2.90;;;;;;;;;;5057747;28;20357;-46
2021/01/18 18:12:55;;;;;;;7.55;3.28;;;;;;;;;;5076073;28;20216;-50
2021/01/18 18:15:37;;;;;;;11.88;4.35;;;;;;;;;;5076501;28;20227;-53
2021/01/18 18:18:16;;;;;;;10.98;5.20;;;;;;;;;;5075759;28;20201;-52
2021/01/18 18:21:09;;;;;;;4.95;3.60;;;;;;;;;;5064356;28;20193;-57
2021/01/18 18:23:45;;;;;;;8.30;3.78;;;;;;;;;;5072732;28;20234;-57
2021/01/18 18:26:13;;;;;;;8.45;4.30;;;;;;;;;;5075027;28;20200;-56
2021/01/18 18:31:47;;;;;;;8.82;4.18;;;;;;;;;;5053108;28;20180;-55
2021/01/18 18:34:34;;;;;;;10.20;4.47;;;;;;;;;;5044773;28;20222;-49
2021/01/18 18:37:31;;;;;;;7.35;3.78;;;;;;;;;;5047845;28;20240;-54
2021/01/18 18:40:23;;;;;;;7.47;4.00;;;;;;;;;;5058377;28;20209;-58
2021/01/18 18:42:52;;;;;;;11.07;4.25;;;;;;;;;;5056396;28;20213;-47
2021/01/18 18:45:19;;;;;;;13.55;4.82;;;;;;;;;;5053583;28;20248;-57
2021/01/18 18:47:48;;;;;;;10.75;3.72;;;;;;;;;;5061187;28;20229;-52
2021/01/18 18:50:18;;;;;;;8.68;4.18;;;;;;;;;;5073472;28;20205;-50
2021/01/18 18:52:47;;;;;;;17.30;4.22;;;;;;;;;;5064860;28;20265;-50
2021/01/18 18:58:34;;;;;;;15.57;5.00;;;;;;;;;;5016318;28;20183;-52
2021/01/18 19:01:08;;;;;;;11.85;4.80;;;;;;;;;;5072437;28;20260;-53
2021/01/18 19:03:49;;;;;;;13.02;5.25;;;;;;;;;;5066551;28;20218;-54
2021/01/18 19:06:34;;;;;;;12.77;4.95;;;;;;;;;;5073958;28;20210;-56
2021/01/18 19:09:04;;;;;;;11.35;5.05;;;;;;;;;;5081194;28;20184;-49